createdAt,value
2022-10-09T00:00:07.147Z,6.77
2022-10-09T00:04:08.925Z,6.78
2022-10-09T00:08:10.471Z,6.77
2022-10-09T00:12:11.854Z,6.87
2022-10-09T00:16:16.279Z,6.87
2022-10-09T00:20:17.857Z,6.89
2022-10-09T00:24:19.286Z,6.67
2022-10-09T00:28:22.760Z,6.66
2022-10-09T00:32:24.277Z,6.55
2022-10-09T00:36:26.340Z,6.65
2022-10-09T00:40:27.719Z,6.73
2022-10-09T00:45:00.218Z,6.68
2022-10-09T00:49:31.376Z,6.58
2022-10-09T00:53:32.881Z,6.61
2022-10-09T00:57:35.260Z,6.55
2022-10-09T01:01:37.677Z,6.42
2022-10-09T01:05:51.131Z,6.47
2022-10-09T01:10:01.633Z,6.35
2022-10-09T01:14:22.734Z,6.47
2022-10-09T01:18:31.013Z,6.41
2022-10-09T01:23:09.574Z,6.16
2022-10-09T01:27:22.086Z,5.94
2022-10-09T01:31:27.718Z,6.12
2022-10-09T01:35:30.519Z,6.04
2022-10-09T01:39:33.848Z,5.99
2022-10-09T01:43:35.408Z,5.76
2022-10-09T01:47:37.844Z,5.68
2022-10-09T01:52:00.886Z,5.62
2022-10-09T01:56:09.040Z,5.78
2022-10-09T02:00:12.339Z,5.85
2022-10-09T02:04:16.641Z,5.53
2022-10-09T02:08:20.803Z,5.77
2022-10-09T02:12:25.212Z,5.75
2022-10-09T02:16:37.377Z,5.79
2022-10-09T02:20:45.375Z,5.51
2022-10-09T02:24:47.614Z,5.56
2022-10-09T02:28:49.580Z,5.77
2022-10-09T02:32:54.429Z,5.72
2022-10-09T02:36:55.815Z,5.54
2022-10-09T02:40:59.100Z,5.64
2022-10-09T02:45:00.574Z,5.75
2022-10-09T02:49:02.028Z,5.78
2022-10-09T02:53:03.549Z,5.58
2022-10-09T02:57:04.927Z,5.41
2022-10-09T03:01:06.762Z,5.53
2022-10-09T03:05:08.699Z,5.48
2022-10-09T03:09:10.287Z,5.45
2022-10-09T03:13:11.701Z,5.47
2022-10-09T03:17:13.143Z,5.36
2022-10-09T03:21:17.707Z,5.47
2022-10-09T03:25:19.079Z,5.45
2022-10-09T03:29:20.582Z,5.12
2022-10-09T03:33:22.094Z,5.24
2022-10-09T03:37:23.570Z,5.05
2022-10-09T03:41:25.033Z,5.16
2022-10-09T03:45:26.452Z,5.17
2022-10-09T03:49:27.804Z,5.13
2022-10-09T03:53:29.448Z,5.01
2022-10-09T03:57:30.879Z,5.09
2022-10-09T04:01:32.415Z,5.14
2022-10-09T04:05:35.109Z,4.95
2022-10-09T04:09:36.530Z,5.04
2022-10-09T04:13:37.994Z,4.95
2022-10-09T04:17:39.372Z,4.89
2022-10-09T04:21:40.735Z,4.80
2022-10-09T04:25:42.147Z,4.57
2022-10-09T04:29:43.590Z,4.56
2022-10-09T04:33:44.967Z,4.70
2022-10-09T04:37:46.376Z,4.67
2022-10-09T04:41:47.738Z,4.70
2022-10-09T04:45:49.170Z,4.56
2022-10-09T04:49:50.667Z,4.70
2022-10-09T04:53:52.127Z,4.48
2022-10-09T04:57:53.533Z,4.43
2022-10-09T05:01:54.972Z,4.47
2022-10-09T05:06:00.952Z,4.50
2022-10-09T05:10:02.335Z,4.38
2022-10-09T05:14:03.715Z,4.32
2022-10-09T05:18:05.306Z,4.42
2022-10-09T05:22:06.707Z,4.44
2022-10-09T05:26:14.357Z,4.23
2022-10-09T05:30:15.951Z,4.36
2022-10-09T05:34:17.395Z,4.17
2022-10-09T05:38:19.412Z,4.31
2022-10-09T05:42:20.867Z,4.33
2022-10-09T05:46:24.220Z,4.31
2022-10-09T05:50:27.067Z,4.31
2022-10-09T05:54:28.533Z,4.28
2022-10-09T05:58:29.934Z,4.28
2022-10-09T06:02:31.366Z,4.35
2022-10-09T06:06:35.753Z,4.39
2022-10-09T06:10:37.189Z,4.46
2022-10-09T06:14:38.580Z,4.48
2022-10-09T06:18:43.517Z,4.60
2022-10-09T06:22:47.125Z,4.72
2022-10-09T06:26:48.707Z,4.71
2022-10-09T06:30:50.610Z,4.76
2022-10-09T06:34:52.058Z,4.92
2022-10-09T06:38:54.034Z,5.00
2022-10-09T06:42:55.492Z,5.35
2022-10-09T06:46:56.931Z,5.40
2022-10-09T06:51:07.202Z,5.42
2022-10-09T06:55:08.899Z,5.69
2022-10-09T06:59:11.103Z,5.92
2022-10-09T07:03:12.713Z,6.02
2022-10-09T07:07:14.122Z,6.04
2022-10-09T07:11:17.120Z,5.98
2022-10-09T07:15:18.575Z,6.02
2022-10-09T07:19:20.068Z,6.37
2022-10-09T07:23:21.490Z,6.48
2022-10-09T07:27:22.915Z,6.78
2022-10-09T07:31:24.991Z,6.95
2022-10-09T07:35:26.474Z,7.16
2022-10-09T07:39:27.862Z,7.50
2022-10-09T07:43:29.925Z,7.67
2022-10-09T07:47:32.969Z,7.97
2022-10-09T07:51:35.798Z,7.88
2022-10-09T07:55:37.382Z,7.80
2022-10-09T07:59:38.806Z,7.82
2022-10-09T08:03:40.219Z,8.11
2022-10-09T08:07:41.612Z,8.40
2022-10-09T08:11:46.131Z,8.45
2022-10-09T08:15:47.609Z,9.11
2022-10-09T08:19:49.108Z,8.94
2022-10-09T08:23:55.544Z,9.41
2022-10-09T08:27:57.162Z,9.73
2022-10-09T08:32:00.100Z,9.77
2022-10-09T08:36:07.738Z,10.10
2022-10-09T08:40:17.578Z,10.01
2022-10-09T08:44:24.309Z,10.43
2022-10-09T08:48:28.567Z,10.91
2022-10-09T08:52:50.263Z,11.26
2022-10-09T08:56:53.186Z,11.21
2022-10-09T09:01:03.190Z,11.74
2022-10-09T09:05:07.307Z,11.47
2022-10-09T09:09:20.790Z,12.13
2022-10-09T09:13:47.803Z,12.69
2022-10-09T09:18:04.090Z,12.50
2022-10-09T09:22:30.592Z,12.41
2022-10-09T09:26:32.001Z,13.12
2022-10-09T09:30:44.105Z,13.47
2022-10-09T09:34:45.694Z,13.07
2022-10-09T09:39:32.432Z,13.00
2022-10-09T09:43:23.350Z,13.12
2022-10-09T09:47:40.321Z,13.62
2022-10-09T09:51:41.926Z,14.24
2022-10-09T09:55:45.892Z,14.30
2022-10-09T09:59:47.397Z,14.43
2022-10-09T10:03:51.589Z,14.53
2022-10-09T10:07:53.336Z,13.70
2022-10-09T10:11:58.996Z,14.62
2022-10-09T10:16:01.357Z,15.41
2022-10-09T10:20:06.567Z,15.95
2022-10-09T10:24:14.915Z,16.10
2022-10-09T10:28:21.870Z,15.87
2022-10-09T10:32:37.179Z,15.79
2022-10-09T10:36:38.552Z,16.15
2022-10-09T10:41:20.035Z,16.35
2022-10-09T10:45:30.999Z,16.85
2022-10-09T10:49:33.974Z,16.64
2022-10-09T10:53:35.457Z,15.31
2022-10-09T10:58:02.988Z,16.50
2022-10-09T11:02:07.219Z,17.30
2022-10-09T11:06:34.717Z,17.92
2022-10-09T11:10:57.597Z,17.54
2022-10-09T11:15:08.672Z,16.83
2022-10-09T11:19:22.155Z,17.58
2022-10-09T11:23:44.468Z,18.00
2022-10-09T11:28:13.177Z,17.61
2022-10-09T11:32:23.556Z,17.71
2022-10-09T11:36:33.098Z,18.49
2022-10-09T11:40:43.668Z,18.29
2022-10-09T11:44:56.422Z,16.71
2022-10-09T11:49:37.328Z,17.68
2022-10-09T11:53:40.065Z,18.39
2022-10-09T11:57:41.506Z,16.86
2022-10-09T12:01:44.707Z,17.71
2022-10-09T12:05:49.365Z,17.93
2022-10-09T12:09:59.070Z,16.75
2022-10-09T12:14:03.926Z,15.51
2022-10-09T12:18:39.253Z,16.21
2022-10-09T12:22:56.392Z,15.94
2022-10-09T12:27:06.451Z,16.89
2022-10-09T12:31:18.523Z,17.25
2022-10-09T12:35:36.854Z,17.23
2022-10-09T12:39:38.594Z,18.07
2022-10-09T12:43:45.347Z,18.44
2022-10-09T12:47:47.440Z,18.94
2022-10-09T12:51:56.214Z,18.50
2022-10-09T12:56:00.453Z,17.60
2022-10-09T13:00:02.093Z,16.54
2022-10-09T13:04:05.829Z,16.58
2022-10-09T13:08:23.906Z,17.22
2022-10-09T13:12:27.532Z,17.24
2022-10-09T13:16:48.735Z,18.68
2022-10-09T13:21:17.549Z,18.66
2022-10-09T13:25:19.029Z,19.22
2022-10-09T13:29:21.029Z,19.08
2022-10-09T13:33:22.662Z,19.63
2022-10-09T13:37:25.863Z,19.65
2022-10-09T13:41:27.320Z,19.49
2022-10-09T13:45:28.916Z,18.50
2022-10-09T13:49:30.344Z,18.21
2022-10-09T13:53:32.635Z,17.85
2022-10-09T13:57:34.112Z,17.94
2022-10-09T14:01:35.619Z,18.79
2022-10-09T14:05:37.153Z,18.54
2022-10-09T14:09:38.717Z,18.53
2022-10-09T14:13:40.265Z,19.00
2022-10-09T14:17:41.702Z,19.50
2022-10-09T14:21:43.129Z,18.57
2022-10-09T14:25:44.554Z,19.43
2022-10-09T14:29:47.411Z,18.12
2022-10-09T14:33:49.499Z,18.09
2022-10-09T14:37:51.058Z,17.65
2022-10-09T14:41:52.625Z,18.11
2022-10-09T14:46:09.098Z,17.08
2022-10-09T14:50:10.679Z,17.58
2022-10-09T14:54:13.740Z,17.87
2022-10-09T14:58:15.126Z,17.95
2022-10-09T15:02:16.886Z,17.63
2022-10-09T15:06:20.134Z,17.60
2022-10-09T15:10:21.512Z,16.97
2022-10-09T15:14:23.199Z,16.23
2022-10-09T15:18:24.644Z,16.09
2022-10-09T15:22:26.112Z,15.91
2022-10-09T15:26:29.305Z,15.86
2022-10-09T15:30:31.302Z,15.89
2022-10-09T15:34:33.548Z,15.68
2022-10-09T15:38:35.337Z,15.54
2022-10-09T15:42:41.435Z,15.36
2022-10-09T15:46:43.434Z,15.10
2022-10-09T15:50:46.523Z,15.02
2022-10-09T15:54:47.962Z,15.11
2022-10-09T15:58:50.544Z,15.01
2022-10-09T16:02:52.335Z,14.63
2022-10-09T16:06:53.990Z,14.31
2022-10-09T16:10:55.724Z,14.40
2022-10-09T16:15:01.040Z,14.05
2022-10-09T16:19:03.804Z,13.86
2022-10-09T16:23:10.979Z,13.84
2022-10-09T16:27:12.723Z,13.45
2022-10-09T16:31:21.906Z,13.32
2022-10-09T16:35:23.442Z,13.19
2022-10-09T16:39:24.867Z,12.87
2022-10-09T16:43:26.327Z,13.06
2022-10-09T16:47:28.781Z,12.45
2022-10-09T16:51:35.735Z,12.39
2022-10-09T16:55:54.323Z,11.95
2022-10-09T16:59:55.785Z,12.07
2022-10-09T17:04:00.172Z,11.59
2022-10-09T17:08:01.601Z,11.88
2022-10-09T17:12:28.735Z,11.67
2022-10-09T17:16:42.714Z,11.28
2022-10-09T17:20:49.785Z,11.14
2022-10-09T17:24:51.163Z,11.21
2022-10-09T17:28:53.510Z,11.32
2022-10-09T17:32:55.337Z,11.14
2022-10-09T17:36:56.863Z,11.18
2022-10-09T17:40:58.345Z,10.84
2022-10-09T17:45:00.534Z,11.12
2022-10-09T17:49:02.091Z,10.77
2022-10-09T17:53:04.630Z,10.71
2022-10-09T17:57:07.075Z,10.71
2022-10-09T18:01:09.589Z,10.76
2022-10-09T18:05:11.284Z,10.67
2022-10-09T18:09:12.766Z,10.46
2022-10-09T18:13:14.467Z,10.60
2022-10-09T18:17:15.996Z,10.33
2022-10-09T18:21:17.764Z,10.29
2022-10-09T18:25:19.204Z,10.22
2022-10-09T18:29:20.745Z,9.97
2022-10-09T18:33:22.570Z,10.07
2022-10-09T18:37:24.335Z,10.13
2022-10-09T18:41:26.163Z,9.81
2022-10-09T18:45:27.960Z,9.97
2022-10-09T18:49:31.810Z,9.81
2022-10-09T18:53:39.130Z,10.00
2022-10-09T18:57:41.762Z,9.78
2022-10-09T19:01:45.465Z,9.53
2022-10-09T19:05:46.959Z,9.43
2022-10-09T19:09:56.953Z,9.56
2022-10-09T19:14:00.641Z,9.38
2022-10-09T19:18:02.176Z,9.39
2022-10-09T19:22:04.458Z,9.37
2022-10-09T19:26:06.115Z,9.33
2022-10-09T19:30:08.507Z,9.19
2022-10-09T19:34:10.522Z,9.48
2022-10-09T19:38:12.780Z,9.16
2022-10-09T19:42:15.918Z,9.18
2022-10-09T19:46:20.829Z,9.36
2022-10-09T19:50:22.389Z,9.12
2022-10-09T19:54:23.756Z,8.98
2022-10-09T19:58:25.222Z,8.90
2022-10-09T20:02:26.673Z,8.97
2022-10-09T20:06:28.482Z,9.09
2022-10-09T20:10:30.047Z,8.88
2022-10-09T20:14:31.445Z,8.98
2022-10-09T20:18:33.492Z,8.92
2022-10-09T20:22:34.950Z,8.85
2022-10-09T20:26:40.874Z,8.92
2022-10-09T20:30:44.350Z,8.90
2022-10-09T20:34:45.891Z,8.65
2022-10-09T20:38:47.901Z,8.75
2022-10-09T20:42:49.555Z,8.71
2022-10-09T20:46:56.561Z,8.83
2022-10-09T20:51:00.783Z,8.59
2022-10-09T20:55:02.248Z,8.47
2022-10-09T20:59:04.005Z,8.49
2022-10-09T21:03:09.269Z,8.31
2022-10-09T21:07:13.107Z,8.50
2022-10-09T21:11:17.218Z,8.41
2022-10-09T21:15:18.825Z,8.36
2022-10-09T21:19:20.265Z,8.15
2022-10-09T21:23:21.750Z,8.01
2022-10-09T21:27:23.141Z,8.27
2022-10-09T21:31:27.432Z,8.18
2022-10-09T21:35:28.890Z,8.29
2022-10-09T21:39:30.498Z,8.51
2022-10-09T21:43:31.926Z,8.63
2022-10-09T21:47:33.317Z,8.55
2022-10-09T21:51:34.752Z,8.49
2022-10-09T21:55:37.765Z,8.41
2022-10-09T21:59:39.220Z,8.45
2022-10-09T22:03:41.751Z,8.52
2022-10-09T22:07:43.193Z,8.47
2022-10-09T22:11:44.936Z,8.24
2022-10-09T22:15:50.782Z,8.10
2022-10-09T22:19:52.674Z,8.03
2022-10-09T22:23:54.103Z,7.83
2022-10-09T22:27:55.497Z,8.20
2022-10-09T22:31:56.927Z,7.94
2022-10-09T22:36:05.991Z,7.91
2022-10-09T22:40:07.707Z,7.74
2022-10-09T22:44:10.814Z,7.82
2022-10-09T22:48:12.253Z,7.65
2022-10-09T22:52:13.717Z,7.53
2022-10-09T22:56:20.638Z,7.70
2022-10-09T23:00:22.065Z,7.54
2022-10-09T23:04:24.043Z,7.61
2022-10-09T23:08:25.429Z,7.63
2022-10-09T23:12:26.807Z,7.51
2022-10-09T23:16:29.984Z,7.43
2022-10-09T23:20:35.092Z,7.57
2022-10-09T23:24:36.538Z,7.58
2022-10-09T23:28:38.181Z,7.60
2022-10-09T23:32:39.639Z,7.52
2022-10-09T23:36:41.064Z,7.44
2022-10-09T23:40:42.491Z,7.25
2022-10-09T23:44:44.051Z,7.39
2022-10-09T23:48:46.302Z,7.26
2022-10-09T23:52:47.994Z,7.03
2022-10-09T23:56:49.565Z,7.09
